Airfield :
LOGIN :

Register | Disclaimer

   EN    FR    IT 

 










Legend :    VFR   Marginal VFR   IFR   Intensive IFR   Very Intensive IFR
Visi :
Ceiling :
>= 8 km
>= 3000ft
5 to 8 km
1000 to 3000 ft
1500m to 5 km
500 to 1000 ft
800 to 1500m
200 to 500 ft
< 800m
< 200 ft
Symbols :   Thunderstorms  Fog  Heavy snow  Heavy precipitations  Wind > 20 kt
SIGMETs :     Misc.  Thunderstorms  Icing  Turbulence  Mountain Waves  Volcanic Ashes






- Airport Elevation : 308 ft
- IATA code : POZ


EPPO - Poznan-Lawica

CURRENT METAR :
  • 101000Z 29016KT 9999 SCT024 BKN035 04/M00 Q1018

EXPIRED METARs :
  • 100930Z 29015KT 9999 FEW018 BKN047 04/M00 Q1017
  • 100900Z 28014KT 9999 FEW019 04/M00 Q1017
  • 100830Z 28015KT CAVOK 02/M00 Q1016
  • 100800Z 29012KT 9999 FEW019 02/M01 Q1016
  • 100730Z 28015KT 9999 FEW019 02/M00 Q1015

TAF TAF EPPO
Valid from the 10 at 06:00 until the 11 at 06:00 UTC


100530Z 1006/1106 30014KT 9999 SCT040
TEMPO 1006/1012 29016G28KT SHRA BKN013CB
BECMG 1015/1018 24006KT
BECMG 1018/1021 2500 BR BKN006
TEMPO 1021/1104 0400 FZFG BKN003
BECMG 1104/1106 18010KT 4000 BR



MET'MAP, your aeronautical weather chart ! - Copyright ORBIFLY December 2007 - Disclaimer

ORBIFLY MET'MAP TEAM :

Programming & Development : Alexandra Zaïnal
Concept & original design : Baudouin d'Aumeries
Assistance for programming : Marc-Olivier Méhu
Technical & hardware support : Manuel Goepfert

Contact : metmap@orbifly.com




SOURCES & CREDITS :

   NOAA